map of TDX home
TDX - Airport
Location
City:  Trat, Trat, Thailand
Near (Alt.):Khao Saming
ICAO:VTBO
IATA:TDX

Details
Type:Airport (Aerodrome, Airfield)
Latitude:12°16'28"N (12.274572)
Longitude:102°19'08"E (102.318958)
Datum:WGS 1984
Elevation:105 ft (32 m)
Variation:0.50°W (WMM2015 magnetic declination)
-0.00° annual change
Runways:1
Longest:4950 × 150 ft (1509 × 45.5 m), paved

Time
Time Zone:UTC+7
Local Time:

Weather
METAR:VTBO 170900Z 05006KT 9999 FEW021 32/23 Q1011
TAF:VTBO 170500Z 1706/1806 05008KT 9999 FEW020
BECMG 1719/1721 5000 BR
BECMG 1801/1803 8000

Related Locations
Nearby:
Farthest:LIM: 12411 mi / 19973 km
Lima (Callao) [Jorge Chávez Intl], CAL, PE

Find:

   beyond  
but within

Other Information
Maps:
NOTAMs:
Links:
Sources:

  
  • flag of Thailand
  

Sectional Chart

Flight Planning
at skyvector.com

Satellite Image

Google Maps Satellite view

 

Copyright © 2004-2018 Karl L. Swartz. All rights reserved.
The Great Circle Mapper name and logo are trademarks of the Great Circle Mapper.
All other trademarks mentioned herein belong to their respective owners.
Please see credits for attibutions and further copyright information.

  Follow gcmap on Facebook Follow gcmap on Twitter Follow gcmap on Google+ GCmap on LinkedIn

hCard Microformat

Geo Microformat